Time;durP1;ratioP1;P1;durP2;ratioP2;P2;SDS_P1;SDS_P2;PMS_P1;PMS_P2;Temp;Humidity;BMP_temperature;BMP_pressure;BME280_temperature;BME280_humidity;BME280_pressure;Samples;Min_cycle;Max_cycle;Signal;HPM_P1;HPM_P2
2023/06/16 00:01:35;;;;;;;9.43;5.80;;;16.30;99.90;;;;;;4985223;28;20442;-77
2023/06/16 00:04:03;;;;;;;8.38;6.05;;;16.30;99.90;;;;;;4985175;28;20485;-77
2023/06/16 00:06:30;;;;;;;7.65;6.32;;;16.30;99.90;;;;;;4982796;28;20514;-76
2023/06/16 00:08:57;;;;;;;9.90;6.15;;;16.30;99.90;;;;;;4994539;28;20424;-77
2023/06/16 00:11:25;;;;;;;7.97;6.57;;;16.30;99.90;;;;;;4977918;28;20422;-75
2023/06/16 00:13:52;;;;;;;6.63;5.93;;;16.20;99.90;;;;;;4985276;28;20465;-77
2023/06/16 00:16:22;;;;;;;10.38;6.18;;;16.20;99.90;;;;;;4983220;28;20449;-76
2023/06/16 00:18:51;;;;;;;9.32;6.90;;;16.20;99.90;;;;;;4984935;28;20434;-76
2023/06/16 00:21:25;;;;;;;9.23;7.13;;;16.10;99.90;;;;;;4981949;28;20425;-77
2023/06/16 00:23:51;;;;;;;9.68;7.10;;;16.10;99.90;;;;;;4981205;28;20426;-76
2023/06/16 00:26:17;;;;;;;9.50;6.82;;;16.00;99.90;;;;;;4984564;28;20418;-77
2023/06/16 00:28:43;;;;;;;7.75;6.20;;;16.00;99.90;;;;;;5016653;28;20433;-77
2023/06/16 00:31:09;;;;;;;12.32;6.63;;;16.00;99.90;;;;;;4985462;28;20419;-77
2023/06/16 00:33:35;;;;;;;8.88;7.13;;;16.00;99.90;;;;;;4984922;28;20398;-77
2023/06/16 00:36:00;;;;;;;8.40;7.13;;;16.00;99.90;;;;;;4984540;28;20437;-77
2023/06/16 00:38:27;;;;;;;8.10;7.13;;;15.80;99.90;;;;;;4964699;28;20419;-76
2023/06/16 00:40:53;;;;;;;9.05;7.10;;;15.80;99.90;;;;;;4982065;28;20414;-76
2023/06/16 00:43:18;;;;;;;11.60;7.57;;;15.80;99.90;;;;;;4995586;28;20478;-76
2023/06/16 00:45:44;;;;;;;10.73;8.10;;;15.60;99.90;;;;;;4989225;28;20447;-76
2023/06/16 00:48:10;;;;;;;8.60;6.38;;;15.50;99.90;;;;;;5001246;28;20436;-77
2023/06/16 00:50:36;;;;;;;15.70;7.32;;;15.70;99.90;;;;;;5001040;27;20885;-76
2023/06/16 00:53:02;;;;;;;8.07;7.03;;;15.70;99.90;;;;;;4982678;28;20808;-77
2023/06/16 00:55:29;;;;;;;12.20;8.45;;;15.60;99.90;;;;;;4990839;28;20795;-76
2023/06/16 00:57:54;;;;;;;8.13;6.95;;;15.50;99.90;;;;;;4983710;28;20431;-77
2023/06/16 01:00:21;;;;;;;9.83;7.13;;;15.50;99.90;;;;;;4983119;28;20442;-77
2023/06/16 01:02:47;;;;;;;8.98;7.05;;;15.50;99.90;;;;;;4981997;28;20441;-76
2023/06/16 01:05:20;;;;;;;13.32;7.97;;;15.60;99.90;;;;;;4984672;28;20437;-77
2023/06/16 01:08:23;;;;;;;14.75;8.20;;;15.50;99.90;;;;;;4983089;28;20435;-76
2023/06/16 01:11:06;;;;;;;10.43;7.93;;;15.60;99.90;;;;;;4975440;28;20776;-76
2023/06/16 01:13:55;;;;;;;9.77;7.88;;;15.50;99.90;;;;;;4981505;28;20969;-75
2023/06/16 01:16:25;;;;;;;9.98;8.02;;;15.50;99.90;;;;;;5014451;28;20438;-77
2023/06/16 01:18:53;;;;;;;12.45;8.70;;;15.30;99.90;;;;;;4980851;28;20434;-76
2023/06/16 01:21:37;;;;;;;9.25;8.25;;;15.40;99.90;;;;;;4982744;28;20431;-77
2023/06/16 01:24:23;;;;;;;9.50;7.50;;;15.30;99.90;;;;;;4969946;28;20449;-77
2023/06/16 01:26:52;;;;;;;10.20;8.38;;;15.20;99.90;;;;;;4980080;28;20488;-77
2023/06/16 01:29:23;;;;;;;9.18;7.57;;;15.30;99.90;;;;;;4987598;28;20423;-77
2023/06/16 01:31:52;;;;;;;13.18;7.75;;;15.10;99.90;;;;;;4984355;28;20908;-77
2023/06/16 01:34:19;;;;;;;13.18;8.70;;;15.10;99.90;;;;;;4978551;28;20757;-77
2023/06/16 01:36:47;;;;;;;11.20;8.43;;;15.20;99.90;;;;;;4982710;28;20446;-77
2023/06/16 01:39:16;;;;;;;11.55;8.52;;;15.00;99.90;;;;;;4996847;28;20482;-78
2023/06/16 01:41:42;;;;;;;10.88;8.57;;;15.00;99.90;;;;;;4986998;28;20465;-77
2023/06/16 01:44:08;;;;;;;10.18;8.52;;;15.00;99.90;;;;;;4986714;28;20462;-77
2023/06/16 01:46:35;;;;;;;11.15;8.98;;;15.10;99.90;;;;;;4986024;28;20471;-78
2023/06/16 01:49:02;;;;;;;11.35;8.50;;;14.90;99.90;;;;;;4982018;28;20447;-77
2023/06/16 01:51:28;;;;;;;11.15;7.97;;;14.90;99.90;;;;;;4981814;28;20438;-76
2023/06/16 01:53:54;;;;;;;12.30;8.50;;;14.80;99.90;;;;;;4985781;28;20426;-76
2023/06/16 01:56:20;;;;;;;10.25;9.13;;;14.80;99.90;;;;;;4981115;28;20963;-77
2023/06/16 01:58:46;;;;;;;13.45;8.77;;;14.80;99.90;;;;;;4984747;28;21123;-75
2023/06/16 02:01:27;;;;;;;9.57;8.40;;;14.80;99.90;;;;;;4986383;28;20533;-76
2023/06/16 02:03:55;;;;;;;10.83;9.13;;;14.80;99.90;;;;;;4986677;28;20434;-76
2023/06/16 02:06:45;;;;;;;11.95;9.07;;;14.70;99.90;;;;;;4983103;28;20443;-77
2023/06/16 02:09:13;;;;;;;9.77;8.88;;;14.80;99.90;;;;;;4979926;28;20520;-77
2023/06/16 02:11:39;;;;;;;12.38;8.65;;;14.80;99.90;;;;;;4984164;28;20446;-77
2023/06/16 02:14:05;;;;;;;10.95;8.80;;;14.70;99.90;;;;;;4985864;28;20587;-78
2023/06/16 02:16:42;;;;;;;11.90;8.48;;;14.80;99.90;;;;;;4986681;28;20895;-77
2023/06/16 02:19:09;;;;;;;11.70;8.48;;;14.80;99.90;;;;;;4988959;28;20762;-76
2023/06/16 02:21:36;;;;;;;11.43;9.27;;;14.80;99.90;;;;;;4986142;28;20442;-75
2023/06/16 02:24:02;;;;;;;12.48;8.15;;;14.80;99.90;;;;;;4974478;28;20507;-78
2023/06/16 02:26:28;;;;;;;13.90;9.10;;;14.60;99.90;;;;;;4980059;28;20506;-77
2023/06/16 02:28:53;;;;;;;10.32;8.40;;;14.60;99.90;;;;;;4987413;28;20446;-77
2023/06/16 02:31:19;;;;;;;10.00;8.38;;;14.60;99.90;;;;;;4987003;28;20427;-76
2023/06/16 02:33:45;;;;;;;12.95;8.43;;;14.60;99.90;;;;;;4988807;28;20453;-77
2023/06/16 02:36:11;;;;;;;12.73;9.13;;;14.50;99.90;;;;;;4986483;28;20487;-76
2023/06/16 02:38:36;;;;;;;10.73;8.57;;;14.50;99.90;;;;;;4988162;28;20411;-77
2023/06/16 02:41:02;;;;;;;10.87;8.90;;;14.40;99.90;;;;;;5009457;28;20420;-77
2023/06/16 02:43:28;;;;;;;11.03;9.23;;;14.40;99.90;;;;;;4968198;28;20464;-75
2023/06/16 02:45:54;;;;;;;11.57;9.40;;;14.30;99.90;;;;;;4969254;28;20507;-75
2023/06/16 02:48:19;;;;;;;15.35;10.98;;;14.40;99.90;;;;;;4968433;28;20417;-77
2023/06/16 02:50:45;;;;;;;10.68;9.00;;;14.30;99.90;;;;;;4967820;28;20827;-77
2023/06/16 02:53:13;;;;;;;11.80;9.88;;;14.30;99.90;;;;;;4970978;28;20412;-76
2023/06/16 02:55:39;;;;;;;12.00;10.90;;;14.40;99.90;;;;;;4999555;28;20438;-75
2023/06/16 02:58:05;;;;;;;13.10;11.80;;;14.40;99.90;;;;;;4987165;28;20504;-77
2023/06/16 03:00:30;;;;;;;13.65;12.32;;;14.30;99.90;;;;;;4991176;28;20434;-76
2023/06/16 03:02:56;;;;;;;13.53;11.13;;;14.30;99.90;;;;;;4986272;28;20432;-77
2023/06/16 03:05:23;;;;;;;13.33;12.17;;;14.40;99.90;;;;;;4993787;28;20515;-77
2023/06/16 03:07:49;;;;;;;14.85;13.35;;;14.50;99.90;;;;;;4985159;28;20420;-77
2023/06/16 03:10:14;;;;;;;12.93;11.82;;;14.40;99.90;;;;;;4996297;28;20530;-77
2023/06/16 03:12:40;;;;;;;13.02;11.15;;;14.40;99.90;;;;;;4983476;28;20427;-77
2023/06/16 03:15:06;;;;;;;14.18;12.77;;;14.50;99.90;;;;;;4975346;28;20888;-76
2023/06/16 03:17:33;;;;;;;15.00;13.50;;;14.40;99.90;;;;;;4986033;28;20430;-76
2023/06/16 03:19:58;;;;;;;15.23;13.82;;;14.50;99.90;;;;;;4984476;28;20513;-77
2023/06/16 03:22:24;;;;;;;16.20;14.57;;;14.60;99.90;;;;;;4985217;28;20515;-76
2023/06/16 03:24:50;;;;;;;17.07;15.30;;;14.60;99.90;;;;;;4986467;28;20456;-77
2023/06/16 03:27:16;;;;;;;18.67;15.83;;;14.60;99.90;;;;;;4998223;28;20468;-77
2023/06/16 03:29:43;;;;;;;19.63;17.67;;;14.70;99.90;;;;;;4994175;28;20512;-76
2023/06/16 03:32:08;;;;;;;20.92;18.90;;;14.80;99.90;;;;;;4995179;28;20434;-77
2023/06/16 03:34:35;;;;;;;21.67;19.58;;;14.90;99.90;;;;;;4990136;28;20522;-77
2023/06/16 03:37:01;;;;;;;23.40;21.20;;;15.00;99.90;;;;;;4987444;28;20812;-77
2023/06/16 03:39:27;;;;;;;22.77;20.77;;;15.00;99.90;;;;;;4993283;28;20422;-76
2023/06/16 03:41:53;;;;;;;24.35;21.85;;;15.00;99.90;;;;;;4994238;28;20460;-76
2023/06/16 03:44:18;;;;;;;22.80;20.70;;;15.10;99.90;;;;;;4986764;28;20423;-77
2023/06/16 03:46:44;;;;;;;24.73;22.43;;;15.10;99.90;;;;;;4988493;28;20427;-76
2023/06/16 03:49:10;;;;;;;23.47;21.37;;;15.10;99.90;;;;;;4986057;28;20461;-77
2023/06/16 03:51:37;;;;;;;25.23;22.75;;;15.00;99.90;;;;;;4990155;28;20511;-77
2023/06/16 03:54:03;;;;;;;24.55;21.95;;;15.10;99.90;;;;;;5004365;28;20409;-76
2023/06/16 03:56:29;;;;;;;24.10;21.90;;;15.10;99.90;;;;;;4997396;28;20534;-77
2023/06/16 03:58:55;;;;;;;25.42;22.73;;;15.20;99.90;;;;;;4984928;28;20513;-75
2023/06/16 04:01:22;;;;;;;23.10;20.73;;;15.10;99.90;;;;;;4993174;28;20521;-77
2023/06/16 04:03:49;;;;;;;19.83;17.50;;;15.20;99.90;;;;;;4987095;28;20456;-77
2023/06/16 04:06:15;;;;;;;17.85;16.10;;;15.20;99.90;;;;;;4987639;28;20463;-76
2023/06/16 04:08:41;;;;;;;17.27;15.65;;;15.20;99.90;;;;;;5001691;28;20985;-76
2023/06/16 04:11:06;;;;;;;17.40;15.82;;;15.20;99.90;;;;;;5017170;28;20518;-77
2023/06/16 04:13:32;;;;;;;18.52;16.55;;;15.50;99.90;;;;;;4993984;28;20435;-76
2023/06/16 04:15:58;;;;;;;15.07;13.60;;;15.60;99.90;;;;;;4993060;28;21147;-77
2023/06/16 04:18:23;;;;;;;14.60;13.03;;;15.50;99.90;;;;;;4986125;28;20426;-76
2023/06/16 04:20:49;;;;;;;13.75;12.52;;;15.40;99.90;;;;;;4983474;28;20425;-76
2023/06/16 04:23:15;;;;;;;14.95;13.55;;;15.10;99.90;;;;;;4982739;28;20631;-76
2023/06/16 04:25:42;;;;;;;14.63;13.13;;;14.90;99.90;;;;;;4984197;28;20521;-76
2023/06/16 04:28:14;;;;;;;14.65;13.27;;;14.80;99.90;;;;;;4984231;28;20435;-77
2023/06/16 04:30:40;;;;;;;16.27;14.60;;;14.80;99.90;;;;;;4983697;28;20435;-76
2023/06/16 04:33:07;;;;;;;18.38;15.68;;;14.80;99.90;;;;;;4984384;28;20989;-75
2023/06/16 04:35:33;;;;;;;17.33;15.73;;;14.80;99.90;;;;;;4976444;28;20570;-76
2023/06/16 04:37:59;;;;;;;15.70;14.18;;;15.10;99.90;;;;;;4975537;28;20452;-76
2023/06/16 04:40:26;;;;;;;16.27;14.57;;;15.00;99.90;;;;;;4978727;28;20424;-77
2023/06/16 04:42:52;;;;;;;15.30;14.00;;;15.10;99.90;;;;;;4984062;28;20465;-76
2023/06/16 04:45:19;;;;;;;16.60;13.23;;;15.10;99.90;;;;;;4981054;28;20435;-76
2023/06/16 04:47:45;;;;;;;15.73;14.23;;;15.10;99.90;;;;;;4982474;28;20434;-77
2023/06/16 04:50:12;;;;;;;15.88;14.23;;;15.20;99.90;;;;;;4983980;28;20523;-76
2023/06/16 04:52:38;;;;;;;17.48;14.82;;;15.30;99.90;;;;;;4964797;28;20456;-76
2023/06/16 04:55:05;;;;;;;16.10;14.60;;;15.30;99.90;;;;;;4980696;28;20998;-77
2023/06/16 04:57:32;;;;;;;17.27;15.57;;;15.40;99.90;;;;;;4981339;28;20517;-76
2023/06/16 04:59:58;;;;;;;18.48;16.67;;;15.50;99.90;;;;;;4982617;28;21011;-76
2023/06/16 05:02:24;;;;;;;19.23;17.35;;;15.90;99.90;;;;;;4979023;28;20525;-74
2023/06/16 05:04:50;;;;;;;18.97;16.97;;;15.80;99.90;;;;;;4984446;28;20513;-74
2023/06/16 05:07:15;;;;;;;19.60;17.77;;;15.80;99.90;;;;;;4983276;28;20434;-75
2023/06/16 05:09:41;;;;;;;20.10;18.07;;;15.90;99.90;;;;;;4983757;28;20479;-74
2023/06/16 05:12:07;;;;;;;20.23;18.43;;;15.90;99.90;;;;;;4983290;28;20469;-74
2023/06/16 05:14:33;;;;;;;22.50;20.38;;;15.90;99.90;;;;;;4985133;28;20511;-74
2023/06/16 05:17:00;;;;;;;22.37;20.20;;;16.00;99.90;;;;;;4998627;28;20464;-75
2023/06/16 05:19:26;;;;;;;23.02;20.83;;;16.10;99.90;;;;;;4984023;28;20942;-75
2023/06/16 05:21:52;;;;;;;24.40;22.15;;;16.20;99.90;;;;;;4985373;28;20442;-75
2023/06/16 05:24:18;;;;;;;24.80;22.50;;;16.40;99.90;;;;;;4985585;28;20480;-75
2023/06/16 05:26:43;;;;;;;24.40;22.10;;;16.60;99.90;;;;;;4988215;28;20433;-75
2023/06/16 05:29:09;;;;;;;25.63;23.10;;;16.70;99.90;;;;;;4985899;28;20420;-75
2023/06/16 05:31:38;;;;;;;26.10;23.58;;;16.60;99.90;;;;;;4985453;28;20426;-75
2023/06/16 05:34:04;;;;;;;24.50;22.38;;;16.70;99.90;;;;;;4987562;28;20466;-75
2023/06/16 05:36:31;;;;;;;25.90;23.67;;;16.70;99.90;;;;;;4985044;28;20470;-75
2023/06/16 05:38:56;;;;;;;23.80;21.58;;;16.70;99.90;;;;;;4986992;28;20426;-75
2023/06/16 05:41:24;;;;;;;24.53;22.40;;;16.90;99.90;;;;;;4986595;28;20441;-75
2023/06/16 05:43:57;;;;;;;23.97;21.73;;;17.10;99.90;;;;;;4986015;28;20850;-75
2023/06/16 05:46:23;;;;;;;23.88;21.02;;;17.10;99.90;;;;;;4986927;28;20426;-75
2023/06/16 05:48:49;;;;;;;22.85;20.95;;;17.20;99.90;;;;;;4986443;28;20799;-75
2023/06/16 05:51:15;;;;;;;21.27;19.38;;;17.30;99.90;;;;;;4986373;28;20514;-75
2023/06/16 05:53:41;;;;;;;21.20;19.08;;;17.30;99.90;;;;;;4981844;28;20950;-75
2023/06/16 05:56:07;;;;;;;22.48;20.35;;;17.40;99.90;;;;;;4980832;28;20442;-75
2023/06/16 05:58:35;;;;;;;21.58;19.63;;;17.40;99.90;;;;;;4981278;28;20461;-75
2023/06/16 06:01:07;;;;;;;21.55;19.50;;;17.40;99.90;;;;;;4978765;28;21073;-75
2023/06/16 06:03:33;;;;;;;23.33;21.25;;;17.50;99.90;;;;;;4979558;28;20430;-75
2023/06/16 06:06:01;;;;;;;21.42;19.35;;;17.60;99.90;;;;;;4981431;28;20434;-76
2023/06/16 06:08:28;;;;;;;19.52;17.83;;;17.70;99.90;;;;;;4979197;28;20449;-74
2023/06/16 06:10:59;;;;;;;19.25;16.98;;;17.80;99.90;;;;;;4985127;28;20462;-75
2023/06/16 06:13:25;;;;;;;19.25;17.38;;;17.90;99.90;;;;;;4979016;28;20551;-75
2023/06/16 06:15:50;;;;;;;18.63;15.82;;;18.00;99.90;;;;;;4963686;28;20475;-75
2023/06/16 06:18:16;;;;;;;18.25;16.27;;;18.00;99.90;;;;;;4978221;28;20567;-75
2023/06/16 06:20:43;;;;;;;18.48;16.25;;;18.10;99.90;;;;;;4978417;28;20794;-75
2023/06/16 06:23:09;;;;;;;17.90;16.13;;;18.10;99.90;;;;;;4980839;28;20796;-75
2023/06/16 06:25:35;;;;;;;17.23;14.95;;;18.20;99.90;;;;;;4983152;28;20443;-75
2023/06/16 06:28:01;;;;;;;16.02;14.40;;;18.20;99.90;;;;;;4985491;28;20510;-75
2023/06/16 06:30:27;;;;;;;15.85;14.40;;;18.30;99.90;;;;;;4986615;28;20498;-76
2023/06/16 06:32:53;;;;;;;16.70;15.00;;;18.40;99.90;;;;;;4986361;28;20841;-75
2023/06/16 06:35:19;;;;;;;14.77;13.25;;;18.40;99.90;;;;;;4985555;28;20419;-75
2023/06/16 06:37:44;;;;;;;15.17;13.77;;;18.50;99.90;;;;;;4986134;28;20496;-75
2023/06/16 06:40:10;;;;;;;14.38;11.88;;;18.40;99.90;;;;;;4966040;28;20413;-74
2023/06/16 06:42:36;;;;;;;12.15;10.95;;;18.50;99.90;;;;;;4978335;28;20419;-73
2023/06/16 06:45:01;;;;;;;12.30;11.10;;;18.50;99.90;;;;;;4986412;28;20468;-75
2023/06/16 06:47:27;;;;;;;10.90;9.53;;;18.60;99.90;;;;;;4985371;28;20468;-74
2023/06/16 06:49:54;;;;;;;10.15;9.15;;;18.70;99.90;;;;;;4984996;28;20407;-74
2023/06/16 06:52:20;;;;;;;10.55;9.55;;;18.70;99.90;;;;;;4984273;28;20487;-74
2023/06/16 06:54:46;;;;;;;11.02;10.02;;;19.00;99.90;;;;;;4980675;28;20502;-76
2023/06/16 06:57:12;;;;;;;11.85;10.30;;;19.30;99.90;;;;;;4979821;28;20419;-75
2023/06/16 06:59:41;;;;;;;10.60;9.60;;;19.30;99.90;;;;;;4984957;28;20433;-76
2023/06/16 07:02:06;;;;;;;8.75;7.90;;;19.60;99.90;;;;;;4990310;28;20796;-76
2023/06/16 07:04:33;;;;;;;10.60;9.60;;;20.30;99.90;;;;;;4985888;28;20442;-77
2023/06/16 07:07:00;;;;;;;8.60;7.68;;;21.40;99.90;;;;;;4991449;28;20421;-77
2023/06/16 07:09:25;;;;;;;9.23;8.32;;;22.50;99.90;;;;;;4986945;28;20434;-78
2023/06/16 07:11:51;;;;;;;8.53;7.73;;;23.00;99.90;;;;;;4983354;28;20430;-76
2023/06/16 07:14:17;;;;;;;9.63;7.60;;;23.70;99.90;;;;;;4994684;28;20927;-76
2023/06/16 07:16:42;;;;;;;8.18;7.38;;;24.00;99.90;;;;;;4999040;28;20446;-76
2023/06/16 07:19:08;;;;;;;8.20;7.47;;;24.20;99.90;;;;;;4983402;28;20778;-77
2023/06/16 07:21:33;;;;;;;9.38;7.45;;;24.40;99.90;;;;;;4997122;28;20445;-75
2023/06/16 07:23:59;;;;;;;9.20;7.80;;;24.60;99.90;;;;;;4985961;28;20411;-75
2023/06/16 07:26:25;;;;;;;9.07;8.07;;;24.90;99.90;;;;;;4984952;28;20483;-75
2023/06/16 07:28:51;;;;;;;8.48;7.47;;;24.80;99.90;;;;;;5001119;28;20401;-75
2023/06/16 07:31:17;;;;;;;8.43;6.95;;;25.20;99.90;;;;;;4984912;28;20427;-75
2023/06/16 07:33:42;;;;;;;8.33;7.57;;;25.60;99.90;;;;;;5002607;28;20428;-75
2023/06/16 07:36:08;;;;;;;11.30;7.82;;;25.60;99.90;;;;;;4982807;28;20946;-75
2023/06/16 07:38:34;;;;;;;12.43;7.97;;;25.60;99.90;;;;;;4986068;28;20064;-75
2023/06/16 07:41:02;;;;;;;9.20;7.47;;;25.60;99.90;;;;;;4994884;28;20935;-76
2023/06/16 07:43:27;;;;;;;9.27;7.60;;;25.90;99.90;;;;;;4987998;28;20430;-76
2023/06/16 07:45:53;;;;;;;8.15;6.72;;;26.20;99.90;;;;;;4986591;28;20483;-77
2023/06/16 07:48:19;;;;;;;8.50;7.33;;;26.10;99.90;;;;;;4983956;28;20493;-76
2023/06/16 07:50:44;;;;;;;8.77;7.53;;;25.50;99.90;;;;;;4993044;28;20472;-77
2023/06/16 07:53:10;;;;;;;10.23;8.37;;;24.70;99.90;;;;;;4984060;28;20460;-78
2023/06/16 07:55:35;;;;;;;7.80;6.82;;;24.40;99.90;;;;;;4979148;28;20581;-76
2023/06/16 07:58:02;;;;;;;11.40;7.10;;;24.00;99.90;;;;;;4994522;28;20425;-78
2023/06/16 08:00:27;;;;;;;8.93;6.70;;;23.70;99.90;;;;;;5003657;28;20460;-77
2023/06/16 08:02:53;;;;;;;9.97;7.23;;;23.30;99.90;;;;;;4993752;28;20461;-75
2023/06/16 08:05:20;;;;;;;6.38;5.60;;;23.70;99.90;;;;;;4983165;28;20438;-77
2023/06/16 08:07:46;;;;;;;9.32;5.93;;;23.20;99.90;;;;;;4997019;28;20768;-78
2023/06/16 08:10:13;;;;;;;5.93;5.22;;;23.00;99.90;;;;;;5006072;28;20433;-79
2023/06/16 08:12:39;;;;;;;6.32;5.57;;;22.80;99.90;;;;;;4988682;28;20432;-78
2023/06/16 08:15:05;;;;;;;8.18;5.80;;;22.70;99.90;;;;;;4987462;28;20552;-78
2023/06/16 08:17:31;;;;;;;7.37;6.53;;;22.90;99.90;;;;;;5005660;28;20432;-79
2023/06/16 08:19:56;;;;;;;7.30;5.88;;;22.90;99.90;;;;;;4996751;28;20513;-73
2023/06/16 08:22:22;;;;;;;9.02;5.60;;;22.90;99.90;;;;;;4986846;28;20419;-74
2023/06/16 08:24:48;;;;;;;7.93;5.57;;;22.80;99.90;;;;;;5006119;28;20405;-73
2023/06/16 08:27:14;;;;;;;5.80;5.00;;;23.00;99.90;;;;;;5004980;28;20435;-74
2023/06/16 08:29:41;;;;;;;6.85;5.35;;;23.00;99.90;;;;;;5004336;28;20428;-73
2023/06/16 08:32:07;;;;;;;6.20;4.40;;;23.40;99.90;;;;;;5003785;28;20428;-75
2023/06/16 08:34:34;;;;;;;4.20;3.80;;;23.30;99.90;;;;;;4968928;28;20433;-73
2023/06/16 08:37:01;;;;;;;6.50;4.20;;;23.40;99.90;;;;;;4967033;28;20443;-73
2023/06/16 08:39:27;;;;;;;4.53;4.03;;;23.50;99.90;;;;;;4997398;28;20512;-74
2023/06/16 08:41:53;;;;;;;5.60;3.83;;;23.60;99.90;;;;;;5004089;28;20413;-73
2023/06/16 08:44:21;;;;;;;6.32;3.28;;;23.70;99.90;;;;;;5000980;28;20439;-74
2023/06/16 08:46:48;;;;;;;4.85;3.30;;;23.50;99.90;;;;;;5003368;28;20443;-74
2023/06/16 08:49:15;;;;;;;5.82;3.38;;;23.60;99.90;;;;;;4988788;28;20424;-76
2023/06/16 08:51:51;;;;;;;4.75;3.15;;;23.60;99.90;;;;;;5007996;28;20434;-74
2023/06/16 08:54:21;;;;;;;5.43;3.67;;;23.40;99.90;;;;;;5057269;28;20438;-74
2023/06/16 08:56:51;;;;;;;5.03;3.13;;;23.40;99.90;;;;;;4983684;28;20852;-75
2023/06/16 08:59:18;;;;;;;6.40;2.90;;;23.40;99.90;;;;;;4995095;28;20428;-76
2023/06/16 09:01:46;;;;;;;5.78;2.90;;;23.60;97.20;;;;;;5002661;28;20463;-75
2023/06/16 09:04:13;;;;;;;3.92;3.10;;;23.70;97.80;;;;;;5004028;28;20416;-74
2023/06/16 09:06:47;;;;;;;5.00;2.30;;;23.60;94.90;;;;;;4998130;28;20851;-71
2023/06/16 09:09:13;;;;;;;4.57;2.55;;;23.60;94.70;;;;;;5004122;28;20755;-77
2023/06/16 09:11:39;;;;;;;6.25;3.53;;;23.50;92.10;;;;;;4994643;28;20431;-78
2023/06/16 09:14:23;;;;;;;6.28;2.63;;;23.30;93.70;;;;;;4988139;28;20482;-78
2023/06/16 09:16:56;;;;;;;3.92;2.70;;;23.60;94.30;;;;;;5001240;28;20452;-75
2023/06/16 09:19:22;;;;;;;4.47;2.20;;;23.60;95.30;;;;;;5002151;28;20739;-77
2023/06/16 09:21:53;;;;;;;6.88;3.35;;;23.90;97.80;;;;;;5002917;28;20421;-77
2023/06/16 09:24:26;;;;;;;3.47;2.60;;;23.90;98.80;;;;;;5003348;28;20405;-77
2023/06/16 09:26:55;;;;;;;5.63;3.15;;;23.80;99.20;;;;;;5001400;28;20423;-77
2023/06/16 09:29:23;;;;;;;4.38;3.50;;;23.80;99.90;;;;;;4988012;28;20459;-77
2023/06/16 09:31:49;;;;;;;4.93;2.92;;;23.60;99.90;;;;;;4983785;28;20486;-77
2023/06/16 09:34:15;;;;;;;4.47;2.60;;;23.60;99.90;;;;;;4984925;28;20787;-77
2023/06/16 09:36:41;;;;;;;4.40;2.50;;;23.90;99.90;;;;;;4992478;28;20753;-76
2023/06/16 09:39:21;;;;;;;5.07;2.57;;;23.70;99.90;;;;;;5003454;28;20481;-77
2023/06/16 09:41:48;;;;;;;3.90;2.92;;;23.80;99.90;;;;;;5003205;28;20413;-76
2023/06/16 09:44:15;;;;;;;8.65;2.80;;;23.90;99.90;;;;;;4997119;28;20927;-81
2023/06/16 09:46:41;;;;;;;5.65;3.35;;;23.90;99.50;;;;;;4967939;28;20421;-78
2023/06/16 09:49:18;;;;;;;4.95;2.60;;;24.10;99.90;;;;;;4964095;28;20420;-78
2023/06/16 09:51:50;;;;;;;5.10;2.63;;;24.10;99.90;;;;;;4999232;28;20482;-76
2023/06/16 09:54:17;;;;;;;6.28;3.30;;;24.00;99.20;;;;;;4993726;28;20429;-76
2023/06/16 09:56:44;;;;;;;5.10;2.58;;;23.90;99.20;;;;;;4986705;28;20494;-81
2023/06/16 09:59:10;;;;;;;6.18;2.80;;;24.00;97.20;;;;;;5007430;28;20813;-78
2023/06/16 10:01:40;;;;;;;3.73;2.53;;;24.00;97.80;;;;;;4993291;28;20411;-83
2023/06/16 10:04:09;;;;;;;3.78;2.35;;;24.30;96.70;;;;;;4985455;28;20413;-81
2023/06/16 10:06:40;;;;;;;3.65;2.30;;;24.20;95.80;;;;;;4999083;28;20513;-81
2023/06/16 10:09:07;;;;;;;6.13;2.00;;;24.20;95.30;;;;;;5000970;28;20409;-79
2023/06/16 10:11:34;;;;;;;4.50;2.63;;;24.20;94.60;;;;;;5074709;28;20410;-80
2023/06/16 10:14:02;;;;;;;9.20;4.30;;;24.30;94.20;;;;;;5003904;28;20503;-81
2023/06/16 10:16:29;;;;;;;6.90;2.53;;;24.10;93.40;;;;;;5001574;28;20437;-80
2023/06/16 10:19:00;;;;;;;4.47;2.38;;;24.30;95.30;;;;;;4983489;28;21081;-81
2023/06/16 10:21:26;;;;;;;5.15;2.08;;;24.10;97.20;;;;;;5014191;28;20423;-81
2023/06/16 10:23:53;;;;;;;6.50;2.08;;;24.50;95.80;;;;;;5006878;28;20405;-78
2023/06/16 10:26:19;;;;;;;3.20;2.97;;;24.60;94.70;;;;;;5006422;28;20417;-81
2023/06/16 10:28:46;;;;;;;4.10;3.00;;;24.30;93.60;;;;;;4993574;28;20418;-79
2023/06/16 10:31:14;;;;;;;7.28;2.45;;;24.50;94.10;;;;;;5002537;28;20449;-76
2023/06/16 10:33:58;;;;;;;3.67;2.70;;;24.60;93.90;;;;;;5004685;28;20409;-77
2023/06/16 10:36:28;;;;;;;3.30;2.70;;;24.60;93.80;;;;;;4997792;28;20435;-76
2023/06/16 10:38:59;;;;;;;4.10;2.60;;;24.60;93.40;;;;;;5000404;28;20440;-77
2023/06/16 10:41:29;;;;;;;6.03;2.70;;;24.60;94.00;;;;;;5075694;28;20869;-82
2023/06/16 10:43:55;;;;;;;4.25;2.60;;;24.80;93.90;;;;;;5005281;28;20409;-80
2023/06/16 10:46:21;;;;;;;3.97;2.20;;;24.80;93.00;;;;;;4996532;28;20483;-80
2023/06/16 10:49:09;;;;;;;5.65;2.22;;;24.80;92.00;;;;;;5005183;28;20419;-80
2023/06/16 10:51:48;;;;;;;3.17;2.40;;;24.80;92.90;;;;;;4985120;28;20444;-81
2023/06/16 10:54:33;;;;;;;5.60;2.85;;;24.90;91.50;;;;;;5041284;28;20439;-80
2023/06/16 10:57:01;;;;;;;6.70;2.38;;;24.80;91.20;;;;;;4990933;28;20448;-78
2023/06/16 10:59:27;;;;;;;7.18;2.88;;;24.80;90.70;;;;;;4986997;28;20777;-78
2023/06/16 11:01:58;;;;;;;5.47;2.40;;;24.90;92.40;;;;;;5026194;28;20413;-79
2023/06/16 11:04:24;;;;;;;5.30;2.60;;;24.90;92.90;;;;;;5043452;28;20451;-79
2023/06/16 11:07:10;;;;;;;5.95;2.95;;;24.80;92.40;;;;;;5057275;28;20497;-78
2023/06/16 11:09:36;;;;;;;5.90;2.20;;;24.70;91.80;;;;;;5007064;28;20425;-78
2023/06/16 11:12:04;;;;;;;3.97;2.55;;;24.80;91.00;;;;;;4993149;28;20739;-81
2023/06/16 11:14:30;;;;;;;3.90;2.53;;;24.70;92.20;;;;;;5006002;28;20432;-80
2023/06/16 11:16:55;;;;;;;5.00;2.10;;;24.50;91.10;;;;;;4983120;28;20921;-79
2023/06/16 11:19:21;;;;;;;5.57;2.28;;;24.90;90.80;;;;;;4983910;28;20514;-82
2023/06/16 11:21:47;;;;;;;5.80;2.70;;;24.50;88.00;;;;;;4982874;28;20493;-80
2023/06/16 11:24:13;;;;;;;6.50;2.72;;;24.80;90.10;;;;;;4985714;28;20427;-77
2023/06/16 11:26:39;;;;;;;5.40;2.30;;;24.80;88.60;;;;;;5046185;28;20515;-77
2023/06/16 11:29:08;;;;;;;3.40;2.00;;;24.70;89.90;;;;;;5028020;28;20405;-76
2023/06/16 11:31:37;;;;;;;4.30;2.50;;;25.00;90.30;;;;;;4965765;28;20420;-77
2023/06/16 11:34:03;;;;;;;7.28;2.20;;;24.80;89.60;;;;;;4974457;28;20436;-77
2023/06/16 11:36:30;;;;;;;5.15;2.45;;;25.00;91.20;;;;;;4966149;28;20468;-77
2023/06/16 11:38:55;;;;;;;2.88;2.17;;;24.90;88.80;;;;;;4966473;28;20791;-78
2023/06/16 11:41:23;;;;;;;5.03;2.42;;;24.80;88.20;;;;;;4967483;28;20446;-83
2023/06/16 11:43:50;;;;;;;3.08;1.77;;;24.70;86.30;;;;;;4999618;28;20910;-80
2023/06/16 11:46:20;;;;;;;7.80;2.50;;;24.80;87.70;;;;;;5005532;28;20409;-75
2023/06/16 11:48:46;;;;;;;6.87;2.33;;;25.00;86.40;;;;;;5005244;28;20413;-77
2023/06/16 11:51:13;;;;;;;3.50;2.17;;;25.00;86.90;;;;;;5004732;28;20441;-80
2023/06/16 11:53:40;;;;;;;3.30;2.42;;;25.10;86.10;;;;;;4991438;28;20621;-79
2023/06/16 11:56:12;;;;;;;4.93;2.78;;;25.10;87.10;;;;;;4983978;28;20442;-77
2023/06/16 11:58:38;;;;;;;7.63;2.80;;;25.20;86.40;;;;;;4993996;28;20828;-75
2023/06/16 12:01:05;;;;;;;6.10;2.60;;;25.10;84.40;;;;;;5005186;28;20412;-79
2023/06/16 12:03:35;;;;;;;3.67;2.50;;;25.40;85.10;;;;;;4992089;28;20439;-78
2023/06/16 12:06:06;;;;;;;5.30;2.20;;;25.30;87.80;;;;;;4983005;28;21011;-74
2023/06/16 12:08:35;;;;;;;4.30;2.20;;;25.00;80.60;;;;;;4985115;28;20511;-79
2023/06/16 12:11:00;;;;;;;5.60;2.33;;;25.00;83.40;;;;;;5004060;28;20434;-80
2023/06/16 12:13:26;;;;;;;4.82;2.10;;;25.10;80.50;;;;;;5005099;28;20745;-82
2023/06/16 12:15:52;;;;;;;3.50;2.30;;;24.80;80.00;;;;;;5004664;28;20459;-78
2023/06/16 12:18:17;;;;;;;3.40;1.83;;;24.90;79.60;;;;;;4991192;28;20434;-78
2023/06/16 12:20:45;;;;;;;5.47;2.23;;;24.90;76.60;;;;;;4983567;28;20440;-82
2023/06/16 12:23:11;;;;;;;4.63;2.13;;;24.90;77.80;;;;;;4983252;28;20423;-80
2023/06/16 12:25:37;;;;;;;5.40;2.00;;;25.00;78.50;;;;;;4984971;28;20429;-78
2023/06/16 12:28:03;;;;;;;5.78;2.53;;;25.20;73.10;;;;;;4985258;28;20415;-79
2023/06/16 12:30:33;;;;;;;4.80;2.40;;;25.10;74.90;;;;;;4997847;28;20449;-79
2023/06/16 12:33:08;;;;;;;3.92;2.22;;;25.60;78.20;;;;;;5004584;28;20413;-74
2023/06/16 12:35:33;;;;;;;6.30;2.38;;;25.30;72.90;;;;;;5003060;28;20486;-81
2023/06/16 12:37:59;;;;;;;5.40;2.30;;;25.40;74.00;;;;;;4990630;28;20803;-75
2023/06/16 12:40:29;;;;;;;10.60;2.53;;;25.20;74.60;;;;;;4996225;28;20442;-79